createdAt,value
2024-02-19T00:00:27.023Z,14.67
2024-02-19T00:01:27.050Z,14.67
2024-02-19T00:02:26.956Z,14.67
2024-02-19T00:03:26.950Z,14.67
2024-02-19T00:04:27.001Z,14.66
2024-02-19T00:05:26.989Z,14.66
2024-02-19T00:06:26.922Z,14.66
2024-02-19T00:07:27.015Z,14.66
2024-02-19T00:08:26.876Z,14.67
2024-02-19T00:09:26.864Z,14.67
2024-02-19T00:10:26.897Z,14.67
2024-02-19T00:11:26.870Z,14.69
2024-02-19T00:12:26.886Z,14.69
2024-02-19T00:13:26.847Z,14.69
2024-02-19T00:14:26.799Z,14.67
2024-02-19T00:15:26.799Z,14.67
2024-02-19T00:16:27.136Z,14.67
2024-02-19T00:17:26.788Z,14.67
2024-02-19T00:18:26.806Z,14.67
2024-02-19T00:19:26.814Z,14.66
2024-02-19T00:20:26.723Z,14.66
2024-02-19T00:21:26.723Z,14.66
2024-02-19T00:22:26.744Z,14.69
2024-02-19T00:23:26.677Z,14.67
2024-02-19T00:24:26.717Z,14.71
2024-02-19T00:25:26.652Z,14.69
2024-02-19T00:26:26.661Z,14.71
2024-02-19T00:27:26.631Z,14.71
2024-02-19T00:28:26.613Z,14.69
2024-02-19T00:29:26.605Z,14.69
2024-02-19T00:30:26.600Z,14.67
2024-02-19T00:31:26.596Z,14.66
2024-02-19T00:32:26.557Z,14.67
2024-02-19T00:33:26.693Z,14.67
2024-02-19T00:34:26.538Z,14.67
2024-02-19T00:35:26.516Z,14.67
2024-02-19T00:36:26.502Z,14.67
2024-02-19T00:37:26.491Z,14.67
2024-02-19T00:38:26.483Z,14.67
2024-02-19T00:39:26.470Z,14.66
2024-02-19T00:40:26.469Z,14.66
2024-02-19T00:41:26.437Z,14.66
2024-02-19T00:42:26.557Z,14.66
2024-02-19T00:43:26.419Z,14.64
2024-02-19T00:44:26.429Z,14.64
2024-02-19T00:45:26.390Z,14.66
2024-02-19T00:46:26.360Z,14.67
2024-02-19T00:47:26.411Z,14.66
2024-02-19T00:48:26.386Z,14.66
2024-02-19T00:49:26.431Z,14.67
2024-02-19T00:50:26.311Z,14.71
2024-02-19T00:51:26.304Z,14.69
2024-02-19T00:52:26.395Z,14.69
2024-02-19T00:53:26.564Z,14.71
2024-02-19T00:54:26.286Z,14.71
2024-02-19T00:55:26.265Z,14.71
2024-02-19T00:56:26.233Z,14.74
2024-02-19T00:57:26.224Z,14.75
2024-02-19T00:58:26.217Z,14.80
2024-02-19T00:59:26.211Z,14.87
2024-02-19T01:00:26.192Z,14.94
2024-02-19T01:01:26.690Z,15.01
2024-02-19T01:02:26.154Z,15.13
2024-02-19T01:03:26.140Z,15.23
2024-02-19T01:04:26.270Z,15.35
2024-02-19T01:05:26.135Z,15.49
2024-02-19T01:06:26.173Z,15.60
2024-02-19T01:07:26.124Z,15.71
2024-02-19T01:08:26.082Z,15.85
2024-02-19T01:09:26.065Z,15.98
2024-02-19T01:10:26.079Z,16.16
2024-02-19T01:11:26.170Z,16.30
2024-02-19T01:12:26.087Z,16.44
2024-02-19T01:13:26.025Z,16.57
2024-02-19T01:14:26.005Z,16.72
2024-02-19T01:15:25.987Z,16.87
2024-02-19T01:16:26.013Z,16.99
2024-02-19T01:17:25.996Z,17.12
2024-02-19T01:18:25.966Z,17.22
2024-02-19T01:19:25.998Z,17.33
2024-02-19T01:20:25.918Z,17.42
2024-02-19T01:21:25.903Z,17.51
2024-02-19T01:22:26.008Z,17.60
2024-02-19T01:23:25.882Z,17.68
2024-02-19T01:24:25.870Z,17.76
2024-02-19T01:25:25.933Z,17.80
2024-02-19T01:26:25.840Z,17.86
2024-02-19T01:27:25.824Z,17.91
2024-02-19T01:28:25.892Z,17.95
2024-02-19T01:29:25.816Z,17.99
2024-02-19T01:30:25.792Z,18.05
2024-02-19T01:31:25.860Z,18.13
2024-02-19T01:32:25.764Z,18.14
2024-02-19T01:33:25.797Z,18.20
2024-02-19T01:34:25.806Z,18.23
2024-02-19T01:35:25.720Z,18.28
2024-02-19T01:36:26.090Z,18.32
2024-02-19T01:37:25.737Z,18.36
2024-02-19T01:38:25.681Z,18.39
2024-02-19T01:39:25.678Z,18.42
2024-02-19T01:40:25.709Z,18.46
2024-02-19T01:41:25.640Z,18.50
2024-02-19T01:42:25.623Z,18.51
2024-02-19T01:43:25.619Z,18.57
2024-02-19T01:44:25.611Z,18.62
2024-02-19T01:45:25.653Z,18.65
2024-02-19T01:46:25.599Z,18.69
2024-02-19T01:47:25.606Z,18.71
2024-02-19T01:48:25.573Z,18.72
2024-02-19T01:49:25.638Z,18.74
2024-02-19T01:50:25.517Z,18.76
2024-02-19T01:51:25.509Z,18.78
2024-02-19T01:52:25.508Z,18.83
2024-02-19T01:53:25.509Z,18.84
2024-02-19T01:54:25.492Z,18.83
2024-02-19T01:55:25.512Z,18.87
2024-02-19T01:56:25.478Z,18.91
2024-02-19T01:57:25.442Z,18.97
2024-02-19T01:58:25.504Z,18.97
2024-02-19T01:59:25.403Z,19.02
2024-02-19T02:00:25.442Z,19.02
2024-02-19T02:01:25.432Z,19.05
2024-02-19T02:02:25.366Z,19.06
2024-02-19T02:03:25.386Z,19.09
2024-02-19T02:04:25.397Z,19.12
2024-02-19T02:05:25.335Z,19.12
2024-02-19T02:06:25.396Z,19.13
2024-02-19T02:07:25.342Z,19.15
2024-02-19T02:08:25.612Z,19.16
2024-02-19T02:09:25.274Z,19.16
2024-02-19T02:10:25.329Z,19.17
2024-02-19T02:11:25.313Z,19.21
2024-02-19T02:12:25.232Z,19.30
2024-02-19T02:13:25.270Z,19.32
2024-02-19T02:14:25.216Z,19.39
2024-02-19T02:15:25.194Z,19.42
2024-02-19T02:16:25.186Z,19.42
2024-02-19T02:17:25.179Z,19.43
2024-02-19T02:18:25.226Z,19.47
2024-02-19T02:19:25.686Z,19.47
2024-02-19T02:20:25.137Z,19.49
2024-02-19T02:21:25.154Z,19.52
2024-02-19T02:22:25.115Z,19.52
2024-02-19T02:23:25.081Z,19.52
2024-02-19T02:24:25.066Z,19.52
2024-02-19T02:25:25.088Z,19.53
2024-02-19T02:26:25.039Z,19.53
2024-02-19T02:27:25.029Z,19.52
2024-02-19T02:28:25.038Z,19.53
2024-02-19T02:29:25.012Z,19.52
2024-02-19T02:30:25.012Z,19.50
2024-02-19T02:31:25.001Z,19.50
2024-02-19T02:32:24.976Z,19.50
2024-02-19T02:33:25.156Z,19.50
2024-02-19T02:34:25.012Z,19.50
2024-02-19T02:35:25.116Z,19.49
2024-02-19T02:36:24.931Z,19.49
2024-02-19T02:37:24.960Z,19.50
2024-02-19T02:38:24.883Z,19.52
2024-02-19T02:39:24.876Z,19.52
2024-02-19T02:40:24.904Z,19.52
2024-02-19T02:41:24.865Z,19.49
2024-02-19T02:42:25.134Z,19.46
2024-02-19T02:43:24.825Z,19.46
2024-02-19T02:44:24.841Z,19.47
2024-02-19T02:45:24.788Z,19.46
2024-02-19T02:46:24.906Z,19.47
2024-02-19T02:47:24.778Z,19.46
2024-02-19T02:48:24.920Z,19.46
2024-02-19T02:49:24.899Z,19.46
2024-02-19T02:50:24.767Z,19.46
2024-02-19T02:51:24.754Z,19.46
2024-02-19T02:52:24.809Z,19.46
2024-02-19T02:53:24.764Z,19.47
2024-02-19T02:54:24.680Z,19.47
2024-02-19T02:55:24.848Z,19.47
2024-02-19T02:56:24.715Z,19.49
2024-02-19T02:57:24.709Z,19.47
2024-02-19T02:58:24.780Z,19.47
2024-02-19T02:59:24.621Z,19.47
2024-02-19T03:00:24.601Z,19.47
2024-02-19T03:01:24.699Z,19.49
2024-02-19T03:02:24.563Z,19.49
2024-02-19T03:03:24.616Z,19.49
2024-02-19T03:04:24.655Z,19.50
2024-02-19T03:05:24.544Z,19.50
2024-02-19T03:06:24.567Z,19.50
2024-02-19T03:07:24.630Z,19.50
2024-02-19T03:08:24.513Z,19.49
2024-02-19T03:09:24.473Z,19.49
2024-02-19T03:10:24.545Z,19.49
2024-02-19T03:11:24.487Z,19.49
2024-02-19T03:12:24.442Z,19.50
2024-02-19T03:13:24.473Z,19.49
2024-02-19T03:14:24.422Z,19.50
2024-02-19T03:15:24.395Z,19.49
2024-02-19T03:16:24.439Z,19.50
2024-02-19T03:17:24.388Z,19.52
2024-02-19T03:18:24.375Z,19.52
2024-02-19T03:19:24.385Z,19.52
2024-02-19T03:20:24.337Z,19.53
2024-02-19T03:21:24.330Z,19.55
2024-02-19T03:22:24.389Z,19.58
2024-02-19T03:23:24.288Z,19.58
2024-02-19T03:24:24.273Z,19.60
2024-02-19T03:25:24.351Z,19.61
2024-02-19T03:26:34.519Z,19.62
2024-02-19T03:27:24.246Z,19.64
2024-02-19T03:28:24.239Z,19.67
2024-02-19T03:29:24.213Z,19.65
2024-02-19T03:30:24.197Z,19.67
2024-02-19T03:31:24.253Z,19.68
2024-02-19T03:32:24.644Z,19.70
2024-02-19T03:33:24.220Z,19.70
2024-02-19T03:34:24.215Z,19.72
2024-02-19T03:35:24.135Z,19.72
2024-02-19T03:36:24.111Z,19.75
2024-02-19T03:37:24.345Z,19.75
2024-02-19T03:38:24.162Z,19.76
2024-02-19T03:39:24.078Z,19.78
2024-02-19T03:40:24.123Z,19.79
2024-02-19T03:41:24.042Z,19.79
2024-02-19T03:42:24.060Z,19.79
2024-02-19T03:43:24.210Z,19.80
2024-02-19T03:44:24.006Z,19.79
2024-02-19T03:45:23.992Z,19.79
2024-02-19T03:46:24.015Z,19.80
2024-02-19T03:47:23.971Z,19.80
2024-02-19T03:48:24.239Z,19.79
2024-02-19T03:49:24.024Z,19.80
2024-02-19T03:50:23.935Z,19.80
2024-02-19T03:51:24.062Z,19.83
2024-02-19T03:52:23.975Z,19.83
2024-02-19T03:53:23.894Z,19.85
2024-02-19T03:54:23.906Z,19.82
2024-02-19T03:55:23.880Z,19.82
2024-02-19T03:56:23.852Z,19.82
2024-02-19T03:57:23.967Z,19.83
2024-02-19T03:58:23.911Z,19.83
2024-02-19T03:59:23.896Z,19.85
2024-02-19T04:00:23.824Z,19.85
2024-02-19T04:01:23.855Z,19.83
2024-02-19T04:02:23.806Z,19.83
2024-02-19T04:03:23.780Z,19.85
2024-02-19T04:04:23.869Z,19.83
2024-02-19T04:05:24.144Z,19.85
2024-02-19T04:06:23.777Z,19.83
2024-02-19T04:07:23.733Z,19.83
2024-02-19T04:08:23.698Z,19.83
2024-02-19T04:09:23.694Z,19.83
2024-02-19T04:10:23.753Z,19.86
2024-02-19T04:11:23.704Z,19.86
2024-02-19T04:12:23.658Z,19.86
2024-02-19T04:13:23.674Z,19.86
2024-02-19T04:14:23.616Z,19.86
2024-02-19T04:15:23.594Z,19.85
2024-02-19T04:16:23.697Z,19.86
2024-02-19T04:17:23.616Z,19.86
2024-02-19T04:18:23.786Z,19.86
2024-02-19T04:19:23.568Z,19.83
2024-02-19T04:20:23.547Z,19.85
2024-02-19T04:21:23.507Z,19.85
2024-02-19T04:22:23.566Z,19.87
2024-02-19T04:23:23.498Z,19.87
2024-02-19T04:24:23.498Z,19.87
2024-02-19T04:25:23.557Z,19.87
2024-02-19T04:26:23.450Z,19.87
2024-02-19T04:27:23.573Z,19.85
2024-02-19T04:28:23.502Z,19.85
2024-02-19T04:29:23.422Z,19.87
2024-02-19T04:30:23.412Z,19.86
2024-02-19T04:31:23.459Z,19.89
2024-02-19T04:32:23.376Z,19.87
2024-02-19T04:33:23.752Z,19.87
2024-02-19T04:34:23.452Z,19.86
2024-02-19T04:35:23.326Z,19.86
2024-02-19T04:36:23.321Z,19.86
2024-02-19T04:37:23.377Z,19.85
2024-02-19T04:38:23.304Z,19.85
2024-02-19T04:39:23.319Z,19.86
2024-02-19T04:40:23.377Z,19.86
2024-02-19T04:41:23.253Z,19.86
2024-02-19T04:42:23.236Z,19.87
2024-02-19T04:43:23.255Z,19.86
2024-02-19T04:44:23.237Z,19.87
2024-02-19T04:45:23.237Z,19.85
2024-02-19T04:46:23.231Z,19.86
2024-02-19T04:47:23.169Z,19.87
2024-02-19T04:48:23.167Z,19.90
2024-02-19T04:49:23.210Z,19.92
2024-02-19T04:50:23.198Z,19.90
2024-02-19T04:51:23.110Z,19.94
2024-02-19T04:52:23.162Z,19.92
2024-02-19T04:53:23.097Z,19.92
2024-02-19T04:54:23.086Z,19.92
2024-02-19T04:55:23.096Z,19.94
2024-02-19T04:56:23.056Z,19.92
2024-02-19T04:57:23.035Z,19.95
2024-02-19T04:58:23.058Z,19.94
2024-02-19T04:59:23.023Z,19.95
2024-02-19T05:00:23.016Z,19.95
2024-02-19T05:01:23.068Z,19.98
2024-02-19T05:02:22.975Z,20.01
2024-02-19T05:03:22.977Z,20.00
2024-02-19T05:04:23.124Z,20.01
2024-02-19T05:05:22.993Z,20.02
2024-02-19T05:06:22.959Z,20.01
2024-02-19T05:07:23.231Z,20.02
2024-02-19T05:08:22.903Z,20.02
2024-02-19T05:09:22.880Z,20.02
2024-02-19T05:10:22.953Z,20.04
2024-02-19T05:11:22.923Z,20.04
2024-02-19T05:12:22.858Z,20.02
2024-02-19T05:13:22.858Z,20.04
2024-02-19T05:14:22.813Z,20.04
2024-02-19T05:15:22.815Z,20.05
2024-02-19T05:16:22.874Z,20.05
2024-02-19T05:17:22.779Z,20.05
2024-02-19T05:18:22.849Z,20.04
2024-02-19T05:19:23.126Z,20.05
2024-02-19T05:20:22.746Z,20.07
2024-02-19T05:21:22.728Z,20.08
2024-02-19T05:22:22.770Z,20.08
2024-02-19T05:23:22.687Z,20.10
2024-02-19T05:24:22.703Z,20.10
2024-02-19T05:25:22.736Z,20.10
2024-02-19T05:26:22.683Z,20.12
2024-02-19T05:27:22.634Z,20.13
2024-02-19T05:28:22.698Z,20.13
2024-02-19T05:29:22.627Z,20.15
2024-02-19T05:30:22.599Z,20.15
2024-02-19T05:31:22.663Z,20.16
2024-02-19T05:32:22.588Z,20.15
2024-02-19T05:33:22.582Z,20.17
2024-02-19T05:34:22.654Z,20.17
2024-02-19T05:35:22.589Z,20.17
2024-02-19T05:36:22.523Z,20.16
2024-02-19T05:37:22.594Z,20.16
2024-02-19T05:38:22.535Z,20.15
2024-02-19T05:39:22.496Z,20.13
2024-02-19T05:40:22.598Z,20.12
2024-02-19T05:41:22.455Z,20.10
2024-02-19T05:42:22.445Z,20.08
2024-02-19T05:43:22.515Z,20.08
2024-02-19T05:44:22.419Z,20.07
2024-02-19T05:45:22.412Z,20.07
2024-02-19T05:46:22.813Z,20.05
2024-02-19T05:47:22.410Z,20.04
2024-02-19T05:48:22.436Z,20.02
2024-02-19T05:49:22.436Z,20.01
2024-02-19T05:50:22.378Z,19.98
2024-02-19T05:51:22.363Z,19.98
2024-02-19T05:52:22.389Z,19.95
2024-02-19T05:53:22.298Z,19.94
2024-02-19T05:54:22.282Z,19.92
2024-02-19T05:55:22.392Z,19.92
2024-02-19T05:56:22.273Z,19.89
2024-02-19T05:57:22.257Z,19.86
2024-02-19T05:58:22.361Z,19.85
2024-02-19T05:59:22.206Z,19.82
2024-02-19T06:00:22.209Z,19.80
2024-02-19T06:01:22.390Z,19.79
2024-02-19T06:02:22.379Z,19.78
2024-02-19T06:03:22.158Z,19.75
2024-02-19T06:04:22.245Z,19.71
2024-02-19T06:05:22.189Z,19.71
2024-02-19T06:06:22.173Z,19.70
2024-02-19T06:07:22.166Z,19.65
2024-02-19T06:08:22.117Z,19.64
2024-02-19T06:09:22.082Z,19.62
2024-02-19T06:10:22.119Z,19.60
2024-02-19T06:11:22.193Z,19.55
2024-02-19T06:12:22.229Z,19.53
2024-02-19T06:13:22.089Z,19.50
2024-02-19T06:14:22.014Z,19.47
2024-02-19T06:15:21.997Z,19.46
2024-02-19T06:16:22.138Z,19.43
2024-02-19T06:17:21.979Z,19.45
2024-02-19T06:18:22.271Z,19.40
2024-02-19T06:19:22.302Z,19.42
2024-02-19T06:20:21.978Z,19.40
2024-02-19T06:21:21.926Z,19.39
2024-02-19T06:22:22.031Z,19.34
2024-02-19T06:23:22.010Z,19.38
2024-02-19T06:24:22.245Z,19.38
2024-02-19T06:25:21.957Z,19.39
2024-02-19T06:26:21.918Z,19.38
2024-02-19T06:27:21.890Z,19.35
2024-02-19T06:28:23.439Z,19.35
2024-02-19T06:29:22.212Z,19.39
2024-02-19T06:30:23.104Z,19.35
2024-02-19T06:31:21.858Z,19.35
2024-02-19T06:32:21.800Z,19.34
2024-02-19T06:33:22.030Z,19.35
2024-02-19T06:34:23.875Z,19.35
2024-02-19T06:35:21.816Z,19.34
2024-02-19T06:36:22.549Z,19.31
2024-02-19T06:37:31.331Z,19.32
2024-02-19T06:38:22.266Z,19.28
2024-02-19T06:39:21.790Z,19.30
2024-02-19T06:40:21.872Z,19.35
2024-02-19T06:41:21.864Z,19.39
2024-02-19T06:42:21.712Z,19.43
2024-02-19T06:43:22.259Z,19.47
2024-02-19T06:44:21.694Z,19.45
2024-02-19T06:45:24.463Z,19.35
2024-02-19T06:46:21.895Z,19.34
2024-02-19T06:47:21.654Z,19.32
2024-02-19T06:48:21.691Z,19.32
2024-02-19T06:52:19.913Z,19.31
2024-02-19T06:53:30.297Z,19.39
2024-02-19T06:54:04.017Z,19.35
2024-02-19T06:55:00.377Z,19.35
2024-02-19T06:56:12.285Z,19.35
2024-02-19T06:57:18.542Z,19.39
2024-02-19T06:57:58.398Z,19.40
2024-02-19T06:59:15.283Z,19.40
2024-02-19T07:00:00.528Z,19.40
2024-02-19T07:01:22.495Z,19.39
2024-02-19T07:02:08.359Z,19.39
2024-02-19T07:02:57.905Z,19.38
2024-02-19T07:04:26.120Z,19.38
2024-02-19T07:05:05.629Z,19.34
2024-02-19T07:06:02.106Z,19.28
2024-02-19T07:06:55.401Z,19.24
2024-02-19T07:07:56.563Z,19.21
2024-02-19T07:09:14.684Z,19.23
2024-02-19T07:09:47.397Z,19.24
2024-02-19T07:10:48.333Z,19.24
2024-02-19T07:11:47.087Z,19.24
2024-02-19T07:12:46.062Z,19.21
2024-02-19T07:13:48.694Z,19.20
2024-02-19T07:14:54.318Z,19.17
2024-02-19T07:19:41.857Z,19.16
2024-02-19T07:20:02.585Z,19.15
2024-02-19T07:21:06.312Z,19.13
2024-02-19T07:22:00.806Z,19.16
2024-02-19T07:22:58.224Z,19.13
2024-02-19T07:23:59.833Z,19.17
2024-02-19T07:25:06.186Z,19.23
2024-02-19T07:26:04.851Z,19.24
2024-02-19T07:26:58.964Z,19.25
2024-02-19T07:27:55.792Z,19.23
2024-02-19T07:28:59.179Z,19.24
2024-02-19T07:29:55.011Z,19.27
2024-02-19T07:30:57.578Z,19.23
2024-02-19T07:31:49.085Z,19.21
2024-02-19T07:32:57.856Z,19.20
2024-02-19T07:33:49.203Z,19.15
2024-02-19T07:34:49.175Z,19.15
2024-02-19T07:36:52.786Z,19.10
2024-02-19T07:37:30.190Z,19.12
2024-02-19T07:38:11.797Z,19.13
2024-02-19T07:39:18.071Z,19.15
2024-02-19T07:40:14.855Z,19.15
2024-02-19T07:41:14.996Z,19.15
2024-02-19T07:42:13.061Z,19.16
2024-02-19T07:43:17.924Z,19.16
2024-02-19T07:44:17.336Z,19.20
2024-02-19T07:45:14.841Z,19.24
2024-02-19T07:46:28.357Z,19.24
2024-02-19T07:47:23.819Z,19.20
2024-02-19T07:48:20.198Z,19.13
2024-02-19T07:49:16.059Z,19.13
2024-02-19T07:50:17.351Z,19.16
2024-02-19T07:51:16.085Z,19.13
2024-02-19T07:52:15.391Z,19.10
2024-02-19T07:53:14.416Z,19.13
2024-02-19T07:54:16.144Z,19.12
2024-02-19T07:55:12.855Z,19.15
2024-02-19T07:56:16.025Z,19.16
2024-02-19T07:57:14.307Z,19.20
2024-02-19T08:03:53.714Z,19.17
2024-02-19T08:05:10.619Z,19.17
2024-02-19T08:05:57.745Z,19.21
2024-02-19T08:06:50.994Z,19.23
2024-02-19T08:07:56.840Z,19.23
2024-02-19T08:08:54.460Z,19.25
2024-02-19T08:09:54.184Z,19.27
2024-02-19T08:11:01.740Z,19.30
2024-02-19T08:11:41.486Z,19.35
2024-02-19T08:12:49.180Z,19.38
2024-02-19T08:13:41.416Z,19.35
2024-02-19T08:14:41.317Z,19.39
2024-02-19T08:15:41.304Z,19.38
2024-02-19T08:16:43.255Z,19.35
2024-02-19T08:17:41.506Z,19.38
2024-02-19T08:18:41.340Z,19.32
2024-02-19T08:19:41.256Z,19.34
2024-02-19T08:20:41.254Z,19.32
2024-02-19T08:21:41.275Z,19.28
2024-02-19T08:22:43.807Z,19.24
2024-02-19T08:23:41.204Z,19.31
2024-02-19T08:24:41.763Z,19.38
2024-02-19T08:25:41.317Z,19.32
2024-02-19T08:26:41.363Z,19.31
2024-02-19T08:27:57.516Z,19.30
2024-02-19T08:28:41.125Z,19.32
2024-02-19T08:29:41.224Z,19.32
2024-02-19T08:30:41.247Z,19.38
2024-02-19T08:31:41.251Z,19.38
2024-02-19T08:32:44.165Z,19.34
2024-02-19T08:33:41.138Z,19.32
2024-02-19T08:34:41.669Z,19.34
2024-02-19T08:35:45.856Z,19.38
2024-02-19T08:36:41.143Z,19.49
2024-02-19T08:37:41.043Z,19.52
2024-02-19T08:40:44.673Z,19.58
2024-02-19T08:43:05.832Z,19.65
2024-02-19T08:44:02.976Z,19.72
2024-02-19T08:45:13.257Z,19.75
2024-02-19T08:46:30.439Z,19.71
2024-02-19T08:46:52.254Z,19.71
2024-02-19T08:47:59.157Z,19.72
2024-02-19T08:48:54.406Z,19.68
2024-02-19T08:49:54.061Z,19.65
2024-02-19T08:51:14.711Z,19.67
2024-02-19T08:51:52.804Z,19.67
2024-02-19T08:52:51.738Z,19.68
2024-02-19T08:53:59.299Z,19.72
2024-02-19T08:54:57.168Z,19.78
2024-02-19T08:56:00.584Z,19.78
2024-02-19T08:56:57.807Z,19.79
2024-02-19T08:57:58.277Z,19.79
2024-02-19T08:58:48.857Z,19.79
2024-02-19T08:59:55.463Z,19.79
2024-02-19T09:01:00.286Z,19.80
2024-02-19T09:02:00.835Z,19.82
2024-02-19T09:02:49.217Z,19.82
2024-02-19T09:03:56.598Z,19.80
2024-02-19T09:05:30.760Z,19.79
2024-02-19T09:06:02.144Z,19.76
2024-02-19T09:07:59.306Z,19.80
2024-02-19T09:09:41.803Z,19.82
2024-02-19T09:23:19.780Z,19.83
2024-02-19T09:24:20.113Z,19.86
2024-02-19T09:25:20.039Z,19.89
2024-02-19T09:28:53.593Z,19.89
2024-02-19T09:29:42.574Z,19.89
2024-02-19T09:30:46.630Z,19.87
2024-02-19T09:31:46.618Z,19.89
2024-02-19T09:32:50.186Z,19.90
2024-02-19T09:33:59.056Z,19.87
2024-02-19T09:34:41.441Z,19.87
2024-02-19T09:36:25.307Z,19.89
2024-02-19T09:36:53.081Z,19.90
2024-02-19T09:38:00.066Z,19.89
2024-02-19T09:39:14.367Z,19.83
2024-02-19T09:40:03.034Z,19.85
2024-02-19T09:43:24.753Z,19.87
2024-02-19T09:44:05.539Z,19.94
2024-02-19T09:45:07.958Z,19.92
2024-02-19T09:46:15.208Z,19.92
2024-02-19T09:48:51.299Z,19.92
2024-02-19T09:49:24.732Z,19.90
2024-02-19T09:50:24.101Z,19.89
2024-02-19T09:51:36.771Z,19.87
2024-02-19T09:52:27.836Z,19.89
2024-02-19T09:53:55.042Z,19.89
2024-02-19T09:54:25.009Z,19.89
2024-02-19T10:07:07.508Z,19.92
2024-02-19T10:07:15.790Z,19.90
2024-02-19T10:08:36.762Z,19.90
2024-02-19T10:09:17.784Z,19.90
2024-02-19T10:10:25.302Z,19.87
2024-02-19T10:11:31.765Z,19.86
2024-02-19T10:12:26.145Z,19.83
2024-02-19T10:13:14.548Z,19.85
2024-02-19T10:14:13.660Z,19.90
2024-02-19T10:15:13.639Z,19.94
2024-02-19T10:16:13.815Z,20.00
2024-02-19T10:17:13.917Z,20.02
2024-02-19T10:18:14.231Z,20.02
2024-02-19T10:19:14.280Z,20.07
2024-02-19T10:20:13.589Z,20.13
2024-02-19T10:21:14.053Z,20.15
2024-02-19T10:22:13.599Z,20.13
2024-02-19T10:23:15.509Z,20.15
2024-02-19T10:24:15.766Z,20.13
2024-02-19T10:25:20.203Z,20.07
2024-02-19T10:26:13.551Z,20.02
2024-02-19T10:27:13.528Z,20.00
2024-02-19T10:28:13.722Z,20.05
2024-02-19T10:29:21.720Z,20.08
2024-02-19T10:30:27.921Z,20.12
2024-02-19T10:36:51.856Z,20.13
2024-02-19T10:39:34.639Z,20.13
2024-02-19T10:40:14.921Z,20.05
2024-02-19T10:45:28.769Z,20.08
2024-02-19T10:45:57.818Z,20.08
2024-02-19T10:46:58.162Z,20.05
2024-02-19T10:47:45.625Z,20.02
2024-02-19T10:49:04.028Z,20.01
2024-02-19T10:51:37.831Z,19.98
2024-02-19T10:52:00.461Z,19.98
2024-02-19T10:53:02.503Z,19.97
2024-02-19T10:55:09.606Z,20.04
2024-02-19T10:55:53.249Z,20.04
2024-02-19T10:56:32.278Z,20.08
2024-02-19T10:58:03.081Z,20.10
2024-02-19T10:58:35.329Z,20.10
2024-02-19T10:59:27.935Z,20.08
2024-02-19T11:00:36.764Z,20.05
2024-02-19T11:01:30.201Z,20.01
2024-02-19T11:02:31.081Z,19.98
2024-02-19T11:03:34.498Z,19.95
2024-02-19T11:04:34.813Z,19.92
2024-02-19T11:05:33.255Z,19.92
2024-02-19T11:06:45.014Z,19.89
2024-02-19T11:07:35.259Z,19.87
2024-02-19T11:08:23.938Z,19.89
2024-02-19T11:09:29.007Z,19.95
2024-02-19T11:10:24.326Z,20.01
2024-02-19T11:11:24.817Z,20.04
2024-02-19T11:12:56.669Z,20.07
2024-02-19T11:13:52.448Z,20.10
2024-02-19T11:14:36.777Z,20.13
2024-02-19T11:16:01.666Z,20.13
2024-02-19T11:16:28.341Z,20.13
2024-02-19T11:17:34.062Z,20.15
2024-02-19T11:18:21.541Z,20.13
2024-02-19T11:19:22.449Z,20.07
2024-02-19T11:20:21.228Z,20.02
2024-02-19T11:21:19.039Z,19.98
2024-02-19T11:22:21.603Z,19.97
2024-02-19T11:23:22.063Z,19.97
2024-02-19T11:24:19.905Z,19.95
2024-02-19T11:25:20.455Z,19.89
2024-02-19T11:26:14.719Z,19.87
2024-02-19T11:30:06.505Z,19.89
2024-02-19T11:30:36.037Z,19.82
2024-02-19T11:31:27.715Z,19.82
2024-02-19T11:34:42.593Z,19.85
2024-02-19T11:35:02.006Z,19.90
2024-02-19T11:35:54.792Z,19.92
2024-02-19T11:37:09.923Z,19.90
2024-02-19T11:38:23.783Z,19.87
2024-02-19T11:39:05.127Z,19.85
2024-02-19T11:41:42.134Z,19.83
2024-02-19T11:42:01.295Z,19.79
2024-02-19T11:43:02.179Z,19.79
2024-02-19T11:44:03.982Z,19.78
2024-02-19T11:45:00.280Z,19.76
2024-02-19T11:46:02.196Z,19.75
2024-02-19T11:47:07.781Z,19.75
2024-02-19T11:48:02.031Z,19.72
2024-02-19T11:49:02.028Z,19.72
2024-02-19T11:49:51.849Z,19.72
2024-02-19T11:50:49.928Z,19.76
2024-02-19T11:51:57.440Z,19.72
2024-02-19T11:52:54.918Z,19.72
2024-02-19T11:54:03.603Z,19.71
2024-02-19T11:55:08.837Z,19.70
2024-02-19T11:56:07.147Z,19.68
2024-02-19T11:56:49.891Z,19.70
2024-02-19T11:57:49.945Z,19.68
2024-02-19T11:58:49.957Z,19.70
2024-02-19T11:59:49.883Z,19.70
2024-02-19T12:00:49.982Z,19.70
2024-02-19T12:01:50.010Z,19.70
2024-02-19T12:02:55.109Z,19.68
2024-02-19T12:03:55.297Z,19.65
2024-02-19T12:04:50.546Z,19.67
2024-02-19T12:05:50.952Z,19.70
2024-02-19T12:06:49.756Z,19.76
2024-02-19T12:07:49.798Z,19.82
2024-02-19T12:08:49.697Z,19.82
2024-02-19T12:09:49.715Z,19.83
2024-02-19T12:10:49.711Z,19.85
2024-02-19T12:11:49.671Z,19.89
2024-02-19T12:12:49.655Z,19.95
2024-02-19T12:13:49.867Z,20.00
2024-02-19T12:14:50.062Z,20.01
2024-02-19T12:15:49.637Z,20.04
2024-02-19T12:16:49.586Z,20.08
2024-02-19T12:17:49.937Z,20.13
2024-02-19T12:18:49.707Z,20.15
2024-02-19T12:19:52.065Z,20.16
2024-02-19T12:21:19.742Z,20.15
2024-02-19T12:22:16.827Z,20.12
2024-02-19T12:23:08.315Z,20.16
2024-02-19T12:24:01.696Z,20.17
2024-02-19T12:25:04.687Z,20.19
2024-02-19T12:25:49.484Z,20.22
2024-02-19T12:26:50.442Z,20.27
2024-02-19T12:27:52.767Z,20.34
2024-02-19T12:28:49.442Z,20.40
2024-02-19T12:29:50.697Z,20.41
2024-02-19T12:30:49.472Z,20.44
2024-02-19T12:31:49.386Z,20.46
2024-02-19T12:32:49.616Z,20.38
2024-02-19T12:33:50.370Z,20.31
2024-02-19T12:34:49.444Z,20.27
2024-02-19T12:35:49.581Z,20.27
2024-02-19T12:36:49.481Z,20.30
2024-02-19T12:37:49.533Z,20.30
2024-02-19T12:38:49.853Z,20.26
2024-02-19T12:39:49.322Z,20.22
2024-02-19T12:40:49.301Z,20.19
2024-02-19T12:41:49.438Z,20.17
2024-02-19T12:42:49.272Z,20.15
2024-02-19T12:43:49.769Z,20.16
2024-02-19T12:44:49.250Z,20.13
2024-02-19T12:45:50.075Z,20.13
2024-02-19T12:46:50.104Z,20.12
2024-02-19T12:47:49.612Z,20.10
2024-02-19T12:48:49.304Z,20.10
2024-02-19T12:49:49.312Z,20.08
2024-02-19T12:50:49.307Z,20.07
2024-02-19T12:51:49.305Z,20.08
2024-02-19T12:52:49.206Z,20.07
2024-02-19T12:53:49.143Z,20.07
2024-02-19T12:54:49.155Z,20.05
2024-02-19T12:55:50.287Z,20.07
2024-02-19T12:56:50.459Z,20.07
2024-02-19T12:57:49.192Z,20.10
2024-02-19T12:58:49.322Z,20.10
2024-02-19T12:59:49.098Z,20.07
2024-02-19T13:01:09.671Z,20.07
2024-02-19T13:02:00.766Z,20.02
2024-02-19T13:02:50.943Z,20.00
2024-02-19T13:03:49.915Z,20.00
2024-02-19T13:04:49.117Z,20.02
2024-02-19T13:05:49.297Z,20.05
2024-02-19T13:06:50.403Z,20.04
2024-02-19T13:07:49.482Z,20.02
2024-02-19T13:08:49.415Z,20.00
2024-02-19T13:09:49.059Z,20.01
2024-02-19T13:10:48.876Z,20.02
2024-02-19T13:11:48.861Z,20.01
2024-02-19T13:12:48.943Z,20.01
2024-02-19T13:13:48.902Z,20.01
2024-02-19T13:14:48.809Z,19.98
2024-02-19T13:15:50.671Z,19.94
2024-02-19T13:16:54.755Z,19.89
2024-02-19T13:17:48.835Z,19.85
2024-02-19T13:18:48.858Z,19.85
2024-02-19T13:19:48.842Z,19.85
2024-02-19T13:20:48.718Z,19.86
2024-02-19T13:21:48.779Z,19.85
2024-02-19T13:22:48.726Z,19.86
2024-02-19T13:23:48.982Z,19.86
2024-02-19T13:24:48.709Z,19.86
2024-02-19T13:25:48.678Z,19.85
2024-02-19T13:26:50.578Z,19.83
2024-02-19T13:27:48.669Z,19.83
2024-02-19T13:28:48.612Z,19.82
2024-02-19T13:29:48.614Z,19.80
2024-02-19T13:30:48.659Z,19.79
2024-02-19T13:31:49.404Z,19.83
2024-02-19T13:32:48.567Z,19.86
2024-02-19T13:33:48.744Z,19.86
2024-02-19T13:34:48.610Z,19.85
2024-02-19T13:35:48.598Z,19.82
2024-02-19T13:36:50.123Z,19.80
2024-02-19T13:37:48.583Z,19.80
2024-02-19T13:38:48.490Z,19.79
2024-02-19T13:39:48.575Z,19.78
2024-02-19T13:40:48.531Z,19.80
2024-02-19T13:41:48.442Z,19.79
2024-02-19T13:42:48.426Z,19.75
2024-02-19T13:43:48.455Z,19.76
2024-02-19T13:44:48.404Z,19.75
2024-02-19T13:45:48.816Z,19.78
2024-02-19T13:46:48.501Z,19.78
2024-02-19T13:47:48.907Z,19.75
2024-02-19T13:48:48.462Z,19.72
2024-02-19T13:49:48.390Z,19.70
2024-02-19T13:50:48.325Z,19.68
2024-02-19T13:51:48.385Z,19.65
2024-02-19T13:52:48.344Z,19.65
2024-02-19T13:53:48.281Z,19.65
2024-02-19T13:54:49.721Z,19.65